默认 日期 大小 文件数 浏览量 最新下载 xml
the wing磁力链接相关资源由用户搜索指令自动获取,结果来源于网络,本站不存储任何资料,亦不承担任何责任,请于24小时内删除,搜索到949个磁力,用时27ms。
    ... #2.flac": 36473526, "06. Ride the tempest.flac": 89123760, "07. Absolution ... , "05. Approaching the chaos.flac": 67827111, "02. The sadness of the raven.flac ...
创建时间: 2021-02-14 14:27:47 大小:484.91 MB 文件数量:8 热度:1 最近下载:2025-02-06 21:54:03
    ... Done.mp3": 10735037, "01. On The Wing.mp3": 6124948, "07. Mr Steranko ... Boat.mp3": 6924302, "04. Hit The Highway.mp3": 7343307, "09. Andover ... Not There.mp3": 4995424, "03. The Hangman's Tree.mp3": 7652603 ... , "02. Salina, Kansas In The Rain.mp3": 7804129}
创建时间: 2021-04-01 19:25:00 大小:99.79 MB 文件数量:15 热度:1 最近下载:2025-01-25 17:14:09
    ... the Wing.jpg": 40937, "A World on the Wing.nfo": 2158, "A World on the Wing ... - 01.mp3": 26888777, "A World on the Wing - 02.mp3 ... on the Wing - 21.mp3": 7711975, "Scott Weidensaul - A World on the Wing- The Global ...
创建时间: 2021-04-05 05:22:28 大小:397.04 MB 文件数量:24 热度:4 最近下载:2025-09-19 11:39:04
    ... #2.flac": 36473526, "06 - Ride the tempest.flac": 89123760, "07 - Absolution ... , "05 - Approaching the chaos.flac": 67827111, "02 - The sadness of the raven.flac ...
创建时间: 2021-12-24 14:53:01 大小:485.35 MB 文件数量:10 热度:3 最近下载:2025-01-02 02:16:01
    ... Buddha Hall).mp3": 34087370, "07 The Severe Teacher (16 June 1974 ... Buddha Hall).mp3": 31761122, "10 The Master of Silence (19 June ... Buddha Hall).mp3": 31983422, "06 The Miracle of Ordinariness (15 June ... Hall).mp3": 37551038, "03 The Gates of Heaven and Hell ...
创建时间: 2022-08-17 05:40:34 大小:361.87 MB 文件数量:21 热度:5 最近下载:2025-10-13 12:40:01
    {"Big Papi.nfo": 4101, "1-01 Track 1.mp3": 6128825, "1-02 Track 2.mp3": 6323743, "1-03 Track 3.mp3": 5078364, "1-04 Track 4.mp3": 5556664, "1-05 Track 5.mp3": 4889689, "1-06 Track 6.mp3": 7167256, "1-07 Track 7.mp3": 7139063, "1-08 Track 8.mp3": 4153180, " ...
创建时间: 2022-11-11 06:31:43 大小:486.19 MB 文件数量:104 热度:6 最近下载:2025-09-21 12:49:03
    {"Scans": {"Case": {"UHD-BD": {"Insert": {"IMG_0012.tif": 13012772}, "img026.tif": 28451855, "img027.tif": 21496586, "img028.tif": 50529742, "img029.tif": 49107807}, "Blu-ray": {"img030.tif": 26114795, "img031.tif": 19885757, "img032.tif": 45846691, " ...
创建时间: 2023-01-03 15:37:21 大小:94.6 GB 文件数量:107 热度:4 最近下载:2025-01-18 17:22:02
    {"The Lords of the Wing Spill Their Secrets - Season 1 - Dropo.mp4": 46482940, "The Lords of the Wing Spill Their Secrets - Season 1 - Dropo.vtt": 4795}
创建时间: 2023-01-05 20:48:04 大小:44.33 MB 文件数量:2 热度:5 最近下载:2025-01-15 15:34:04
    {"back.jpg": 727633, "tray.jpg": 155476, "booklet.jpg": 497311}
创建时间: 2023-03-13 23:08:55 大小:1.32 MB 文件数量:3 热度:5 最近下载:2025-09-21 06:31:01
    {"RW1999-08-27.txt": 1245, "RW1999-08-27-back.jpg": 760107, "RW1999-08-27-front.jpg": 1926620, "RogerWaters1999-08-27-d1t01.shn": 22271773, "RogerWaters1999-08-27-d1t02.shn": 10961569, "RogerWaters1999-08-27-d1t03.shn": 12797525, "RogerWaters1999-08-27- ...
创建时间: 2023-03-19 16:17:55 大小:696.46 MB 文件数量:30 热度:5 最近下载:2025-01-15 22:09:05
    {"POTW.txt": 271, "POTW.flac": 19878243, "Pigs On The Wing (from 8 track tape).md5": 89}
创建时间: 2023-03-22 07:02:52 大小:18.96 MB 文件数量:3 热度:3 最近下载:2025-01-26 18:26:07
    ... .md5": 309, "03 Pigs On The Wing - 8 Track Tape Mix (Raw ... .flac": 97545555, "02 Pigs On The Wing - 8 Track Tape Mix (Restored ... .flac": 81985490, "01 Pigs On The Wing - 8 Track Tape Mix (Restored ...
创建时间: 2023-03-29 19:56:52 大小:244.87 MB 文件数量:7 热度:4 最近下载:2025-01-21 01:59:08
    ... - Lily Larimar And Charly Summer - The Wing Woman.mp4": 829422592}
创建时间: 2023-03-29 21:38:57 大小:825.51 MB 文件数量:22 热度:14 最近下载:2025-09-18 18:20:02
    {"RARBG.txt": 30, "RARBG_DO_NOT_MIRROR.exe": 99, "Survivor.S44E09.Under.the.Wing.of.a.Dragon.1080p.AMZN.WEB-DL.DDP5.1.H.264-KiNGS.mkv": 3855988290}
创建时间: 2023-05-10 20:16:35 大小:3.59 GB 文件数量:3 热度:3 最近下载:2025-01-15 08:24:05
    {"RARBG.txt": 30, "RARBG_DO_NOT_MIRROR.exe": 99, "Survivor.S44E09.Under.the.Wing.of.a.Dragon.720p.AMZN.WEB-DL.DDP5.1.H.264-KiNGS.mkv": 1099672449}
创建时间: 2023-05-10 21:21:28 大小:1.02 GB 文件数量:3 热度:3 最近下载:2025-02-09 08:05:02
    {"PRRP041D1T01.flac": 3243409, "PRRP041D1T02.flac": 67948733, "PRRP041D1T03.flac": 10970865, "PRRP041D1T04.flac": 118549185, "PRRP041D1T05.flac": 16761829, "PRRP041D1T06.flac": 111028908, "PRRP041D2T01.flac": 2513864, "PRRP041D2T02.flac": 87236195, " ...
创建时间: 2023-05-11 19:32:25 大小:697.32 MB 文件数量:21 热度:4 最近下载:2025-01-14 02:25:02
    {"RARBG.txt": 30, "RARBG_DO_NOT_MIRROR.exe": 99, "Survivor.S44E09.Under.the.Wing.of.a.Dragon.1080p.HULU.WEB-DL.DDP5.1.x264-WhiteHat.mkv": 1493421034}
创建时间: 2023-05-12 06:29:49 大小:1.39 GB 文件数量:3 热度:3 最近下载:2025-01-13 01:20:05
    ... .flac": 4682489, "01 - Sleep On the Wing.flac": 17847171, "03 - Lightspout Hollow ... - Miss Blennerhassett.flac": 8736712, "06 - The Milky Way Over Ratlinghope.flac ... .txt": 715, "10 - Watching Thus, the Heron Is All Pool.flac ...
创建时间: 2023-05-18 20:51:37 大小:129.58 MB 文件数量:14 热度:3 最近下载:2025-02-15 03:36:05
    {"NEW upcoming releases by Xclusive.txt": 71, "[TGx]Downloaded from torrentgalaxy.to .txt": 718, "Survivor.S44E09.Under.the.Wing.of.a.Dragon.720p.AMZN.WEB-DL.DDP5.1.H.264-KiNGS.mkv": 1099672449}
创建时间: 2023-05-19 09:30:56 大小:1.02 GB 文件数量:3 热度:2 最近下载:2025-02-20 23:31:04
    {"My Pen Is the Wing of a Bird_ N - 18 ... .epub": 2392368, "My Pen Is the Wing of a Bird꞉ New ... .cue": 2355, "My Pen Is the Wing of a Bird꞉ New ... .jpg": 1072461, "My Pen Is the Wing of a Bird꞉ New ...
创建时间: 2024-02-11 15:30:05 大小:332.71 MB 文件数量:4 热度:3 最近下载:2025-01-22 12:51:04